Time;durP1;ratioP1;P1;durP2;ratioP2;P2;SDS_P1;SDS_P2;PMS_P1;PMS_P2;Temp;Humidity;BMP_temperature;BMP_pressure;BME280_temperature;BME280_humidity;BME280_pressure;Samples;Min_cycle;Max_cycle;Signal;HPM_P1;HPM_P2
2022/03/19 00:01:27;;;;;;;29.73;10.98;;;;;;;4.20;70.02;102721.06;5084227;28;21179;-70
2022/03/19 00:03:52;;;;;;;25.48;8.65;;;;;;;4.16;70.58;102722.78;5085921;28;20047;-73
2022/03/19 00:06:18;;;;;;;32.95;9.25;;;;;;;4.10;71.09;102712.41;5068773;28;20040;-71
2022/03/19 00:08:44;;;;;;;27.42;9.35;;;;;;;4.10;71.51;102709.81;5088505;28;20047;-68
2022/03/19 00:11:09;;;;;;;31.30;10.63;;;;;;;4.03;71.78;102708.06;5088248;27;20055;-69
2022/03/19 00:13:35;;;;;;;23.35;9.52;;;;;;;4.01;71.95;102713.28;5080567;28;20585;-70
2022/03/19 00:16:00;;;;;;;27.45;8.98;;;;;;;3.97;71.71;102723.66;5089142;28;20020;-70
2022/03/19 00:18:25;;;;;;;45.55;10.68;;;;;;;3.90;72.47;102717.63;5082261;28;20036;-70
2022/03/19 00:20:53;;;;;;;33.70;9.25;;;;;;;3.87;72.70;102717.59;5087336;28;20532;-71
2022/03/19 00:23:21;;;;;;;866.67;119.80;;;;;;;3.91;72.11;102716.75;5068493;28;20044;-71
2022/03/19 00:25:46;;;;;;;184.17;22.30;;;;;;;3.94;71.94;102721.94;5089198;28;20306;-70
2022/03/19 00:28:12;;;;;;;32.75;10.40;;;;;;;4.04;71.42;102717.59;5089435;28;20294;-69
2022/03/19 00:30:38;;;;;;;50.85;11.13;;;;;;;4.03;71.17;102721.06;5068571;28;20032;-71
2022/03/19 00:33:03;;;;;;;39.17;9.93;;;;;;;4.04;71.43;102718.47;5082972;27;20028;-70
2022/03/19 00:35:32;;;;;;;28.95;8.75;;;;;;;4.02;71.79;102720.19;5085314;28;20036;-73
2022/03/19 00:37:57;;;;;;;35.45;9.82;;;;;;;4.12;71.12;102721.06;5088627;27;20040;-71
2022/03/19 00:40:23;;;;;;;26.48;8.25;;;;;;;4.21;70.45;102726.25;5085547;28;20048;-70
2022/03/19 00:42:49;;;;;;;24.42;9.48;;;;;;;4.25;70.36;102737.50;5088752;28;20024;-70
2022/03/19 00:45:15;;;;;;;28.77;8.43;;;;;;;4.26;70.26;102729.69;5086810;28;20039;-71
2022/03/19 00:47:41;;;;;;;24.85;7.72;;;;;;;4.25;70.18;102730.56;5086769;27;20419;-71
2022/03/19 00:50:07;;;;;;;29.95;8.05;;;;;;;4.25;70.39;102732.28;5084307;28;20047;-72
2022/03/19 00:52:33;;;;;;;30.42;6.95;;;;;;;4.21;70.32;102735.75;5095225;27;20014;-72
2022/03/19 00:54:58;;;;;;;24.88;7.57;;;;;;;4.18;70.58;102735.75;5084795;28;20019;-71
2022/03/19 00:57:24;;;;;;;20.83;6.47;;;;;;;4.07;70.88;102734.03;5067336;28;20124;-69
2022/03/19 00:59:49;;;;;;;37.63;7.60;;;;;;;4.08;70.83;102737.53;5085083;27;20042;-68
2022/03/19 01:02:14;;;;;;;27.00;8.00;;;;;;;4.02;70.97;102740.09;5083691;28;22082;-70
2022/03/19 01:04:39;;;;;;;33.13;7.97;;;;;;;3.99;70.94;102734.91;5086942;28;20040;-71
2022/03/19 01:07:05;;;;;;;22.23;6.57;;;;;;;3.97;70.76;102734.91;5088880;28;20059;-74
2022/03/19 01:09:30;;;;;;;20.10;5.90;;;;;;;3.98;70.70;102735.78;5088669;28;20046;-70
2022/03/19 01:11:55;;;;;;;27.08;6.43;;;;;;;3.98;70.79;102728.00;5088453;28;20076;-74
2022/03/19 01:14:21;;;;;;;21.35;6.03;;;;;;;4.00;70.61;102732.28;5087190;27;20111;-72
2022/03/19 01:16:46;;;;;;;21.33;5.57;;;;;;;4.01;70.80;102725.41;5092204;28;20043;-73
2022/03/19 01:19:15;;;;;;;19.60;5.60;;;;;;;4.07;70.36;102726.25;5088608;28;20058;-71
2022/03/19 01:21:40;;;;;;;25.03;6.43;;;;;;;4.05;70.30;102724.53;5089253;28;20551;-72
2022/03/19 01:24:06;;;;;;;18.42;6.43;;;;;;;4.09;69.96;102723.66;5088441;28;20071;-71
2022/03/19 01:26:32;;;;;;;18.42;6.43;;;;;;;4.08;70.13;102727.13;5090393;28;20130;-72
2022/03/19 01:28:57;;;;;;;23.48;6.55;;;;;;;4.03;70.40;102729.72;5095208;28;20056;-72
2022/03/19 01:31:25;;;;;;;18.25;5.80;;;;;;;3.99;70.47;102729.72;5091467;28;20028;-70
2022/03/19 01:33:52;;;;;;;17.02;5.40;;;;;;;3.97;70.45;102726.25;5095714;28;20016;-73
2022/03/19 01:36:17;;;;;;;26.08;6.22;;;;;;;3.95;70.63;102726.25;5095503;28;20035;-72
2022/03/19 01:38:43;;;;;;;17.23;5.80;;;;;;;3.98;70.61;102733.19;5091830;27;20033;-72
2022/03/19 01:41:08;;;;;;;17.67;5.40;;;;;;;3.94;70.75;102734.06;5086297;28;20036;-70
2022/03/19 01:43:37;;;;;;;19.20;6.22;;;;;;;3.93;70.76;102729.69;5093276;28;20051;-73
2022/03/19 01:46:02;;;;;;;19.45;6.00;;;;;;;3.94;71.11;102727.13;5090532;28;20113;-70
2022/03/19 01:48:29;;;;;;;20.50;5.43;;;;;;;3.98;71.23;102731.44;5096361;28;20288;-73
2022/03/19 01:50:54;;;;;;;19.67;5.40;;;;;;;4.07;71.55;102722.78;5094171;28;20078;-73
2022/03/19 01:53:19;;;;;;;18.33;5.63;;;;;;;4.19;71.78;102721.91;5094433;28;20028;-71
2022/03/19 01:55:45;;;;;;;23.73;5.72;;;;;;;4.27;71.95;102723.66;5095299;28;20519;-72
2022/03/19 01:58:10;;;;;;;19.60;5.38;;;;;;;4.41;71.60;102721.00;5095352;28;20092;-72
2022/03/19 02:00:37;;;;;;;21.83;5.40;;;;;;;4.49;71.79;102715.81;5095177;28;20040;-72
2022/03/19 02:03:03;;;;;;;24.00;5.55;;;;;;;4.54;71.73;102717.50;5093884;28;20038;-69
2022/03/19 02:05:29;;;;;;;14.75;4.72;;;;;;;4.59;71.83;102718.34;5076269;28;20127;-75
2022/03/19 02:07:55;;;;;;;28.30;5.32;;;;;;;4.64;71.91;102718.38;5094269;27;20097;-71
2022/03/19 02:10:22;;;;;;;16.42;4.95;;;;;;;4.66;72.26;102726.16;5089718;28;20031;-70
2022/03/19 02:12:49;;;;;;;20.75;5.43;;;;;;;4.67;72.28;102728.72;5094361;28;20062;-70
2022/03/19 02:15:15;;;;;;;14.45;5.00;;;;;;;4.68;72.54;102717.50;5094288;28;20039;-72
2022/03/19 02:17:40;;;;;;;18.50;5.43;;;;;;;4.68;72.48;102717.50;5093544;28;20405;-71
2022/03/19 02:20:06;;;;;;;22.95;5.00;;;;;;;4.69;72.48;102714.00;5094090;28;20040;-71
2022/03/19 02:22:32;;;;;;;18.95;5.68;;;;;;;4.69;72.75;102718.34;5094115;28;20481;-70
2022/03/19 02:27:42;;;;;;;17.85;5.13;;;;;;;4.75;72.24;102707.94;5089512;28;20075;-70
2022/03/19 02:30:10;;;;;;;25.88;4.38;;;;;;;4.77;72.55;102711.38;5091096;27;20040;-70
2022/03/19 02:32:36;;;;;;;17.08;4.63;;;;;;;4.81;72.39;102713.97;5088071;28;20497;-69
2022/03/19 02:35:02;;;;;;;25.17;5.13;;;;;;;4.81;72.15;102706.16;5090435;28;20032;-70
2022/03/19 02:37:38;;;;;;;20.85;4.65;;;;;;;4.87;72.23;102704.41;5069372;28;20031;-71
2022/03/19 02:40:04;;;;;;;17.45;5.05;;;;;;;4.90;71.92;102701.81;5086675;28;20035;-71
2022/03/19 02:42:29;;;;;;;18.15;5.03;;;;;;;4.93;71.98;102699.19;5066205;28;20115;-72
2022/03/19 02:44:55;;;;;;;28.00;5.03;;;;;;;4.91;71.74;102704.41;5068300;28;20115;-73
2022/03/19 02:47:20;;;;;;;19.42;4.70;;;;;;;4.90;71.83;102701.81;5088263;28;20085;-71
2022/03/19 02:49:45;;;;;;;15.77;4.75;;;;;;;4.85;72.08;102694.88;5084736;28;20059;-70
2022/03/19 02:52:11;;;;;;;19.30;5.10;;;;;;;4.81;71.83;102694.91;5087581;28;20063;-70
2022/03/19 02:54:37;;;;;;;23.83;4.85;;;;;;;4.77;71.96;102691.44;5086490;28;20103;-72
2022/03/19 02:57:03;;;;;;;27.17;4.93;;;;;;;4.76;71.96;102692.31;5083382;28;20021;-71
2022/03/19 02:59:34;;;;;;;19.73;4.00;;;;;;;4.73;71.97;102692.34;5089594;28;20035;-72
2022/03/19 03:02:02;;;;;;;19.40;4.63;;;;;;;4.71;72.21;102691.50;5090570;28;20035;-71
2022/03/19 03:04:28;;;;;;;23.67;4.28;;;;;;;4.69;71.96;102685.41;5089371;28;20032;-72
2022/03/19 03:06:56;;;;;;;17.35;4.13;;;;;;;4.67;72.49;102684.56;5090806;28;20050;-72
2022/03/19 03:09:25;;;;;;;16.60;3.95;;;;;;;4.61;72.38;102682.00;5090447;28;20126;-73
2022/03/19 03:11:51;;;;;;;16.47;4.67;;;;;;;4.59;72.17;102681.97;5090784;28;20063;-72
2022/03/19 03:14:23;;;;;;;21.67;5.25;;;;;;;4.60;72.43;102685.47;5088694;28;20044;-70
2022/03/19 03:16:51;;;;;;;10.27;3.95;;;;;;;4.58;72.41;102672.47;5085689;28;20028;-72
2022/03/19 03:19:17;;;;;;;20.17;4.18;;;;;;;4.52;73.01;102684.59;5088579;28;20655;-72
2022/03/19 03:21:43;;;;;;;18.13;4.28;;;;;;;4.49;73.19;102675.09;5091268;28;20032;-72
2022/03/19 03:24:09;;;;;;;10.55;4.25;;;;;;;4.43;73.55;102680.31;5099304;22;20074;-67
2022/03/19 03:26:35;;;;;;;26.98;5.10;;;;;;;4.40;73.42;102675.13;5088165;28;20036;-72
2022/03/19 03:29:00;;;;;;;14.80;3.90;;;;;;;4.35;73.51;102675.13;5088905;28;20024;-70
2022/03/19 03:31:27;;;;;;;19.63;4.70;;;;;;;4.33;73.67;102676.00;5087612;28;20027;-67
2022/03/19 03:33:53;;;;;;;35.00;4.72;;;;;;;4.25;74.35;102672.56;5084856;28;20034;-69
2022/03/19 03:36:19;;;;;;;20.02;4.32;;;;;;;4.20;74.19;102680.38;5087647;28;20028;-69
2022/03/19 03:38:44;;;;;;;19.33;4.13;;;;;;;4.17;74.46;102676.91;5088345;28;20446;-69
2022/03/19 03:41:09;;;;;;;19.40;5.43;;;;;;;4.17;74.24;102669.13;5087819;28;20682;-71
2022/03/19 03:43:35;;;;;;;22.00;4.63;;;;;;;4.13;74.43;102676.91;5068423;28;20386;-70
2022/03/19 03:46:01;;;;;;;17.52;4.32;;;;;;;4.05;74.99;102668.28;5069923;28;20369;-70
2022/03/19 03:48:26;;;;;;;20.05;4.63;;;;;;;4.02;74.70;102681.25;5086743;28;20040;-68
2022/03/19 03:50:54;;;;;;;20.23;4.15;;;;;;;3.96;74.81;102665.69;5068844;28;20028;-70
2022/03/19 03:53:20;;;;;;;23.63;5.20;;;;;;;3.89;75.68;102666.53;5087483;28;20089;-69
2022/03/19 03:55:46;;;;;;;27.02;4.30;;;;;;;3.84;75.95;102670.88;5087799;28;20032;-67
2022/03/19 03:58:12;;;;;;;17.38;5.00;;;;;;;3.80;75.85;102670.03;5087943;28;20020;-69
2022/03/19 04:00:37;;;;;;;31.35;5.10;;;;;;;3.72;76.01;102665.72;5065159;28;20097;-70
2022/03/19 04:03:04;;;;;;;22.58;4.47;;;;;;;3.63;76.89;102664.84;5086417;28;20039;-69
2022/03/19 04:05:30;;;;;;;24.27;4.43;;;;;;;3.54;76.99;102664.81;5087556;28;20028;-72
2022/03/19 04:07:55;;;;;;;22.50;4.07;;;;;;;3.50;77.40;102665.69;5086858;28;20043;-70
2022/03/19 04:10:21;;;;;;;23.08;5.22;;;;;;;3.46;77.44;102665.69;5087308;28;20484;-70
2022/03/19 04:12:46;;;;;;;17.73;4.55;;;;;;;3.39;78.22;102659.63;5087502;28;20047;-69
2022/03/19 04:15:11;;;;;;;19.20;4.80;;;;;;;3.40;77.90;102657.03;5086532;28;20070;-70
2022/03/19 04:17:37;;;;;;;18.80;4.03;;;;;;;3.38;77.72;102653.59;5068916;28;20028;-70
2022/03/19 04:20:05;;;;;;;16.60;4.57;;;;;;;3.38;77.91;102651.00;5086701;28;20039;-72
2022/03/19 04:22:38;;;;;;;19.40;4.03;;;;;;;3.27;78.61;102644.94;5083622;28;20070;-73
2022/03/19 04:25:08;;;;;;;22.30;4.82;;;;;;;3.26;78.95;102648.34;5087134;28;20032;-68
2022/03/19 04:27:34;;;;;;;30.30;4.97;;;;;;;3.23;78.77;102642.34;5068892;28;20051;-68
2022/03/19 04:29:59;;;;;;;26.27;5.65;;;;;;;3.20;78.88;102638.00;5086973;28;20474;-72
2022/03/19 04:32:24;;;;;;;23.42;4.20;;;;;;;3.14;79.25;102633.66;5086723;28;20162;-71
2022/03/19 04:34:50;;;;;;;26.17;4.28;;;;;;;3.09;80.02;102634.53;5086630;28;20516;-69
2022/03/19 04:37:15;;;;;;;22.13;4.50;;;;;;;3.03;79.94;102650.03;5069526;28;20103;-70
2022/03/19 04:39:40;;;;;;;16.30;4.00;;;;;;;3.01;80.23;102655.25;5087189;28;20044;-70
2022/03/19 04:42:06;;;;;;;18.40;5.00;;;;;;;2.96;80.68;102650.88;5068514;28;20096;-69
2022/03/19 04:44:33;;;;;;;19.70;5.00;;;;;;;2.92;80.32;102658.66;5068466;28;20401;-71
2022/03/19 04:46:58;;;;;;;30.02;5.30;;;;;;;2.87;80.80;102656.91;5086421;28;20038;-70
2022/03/19 04:49:23;;;;;;;27.05;6.25;;;;;;;2.86;80.98;102653.47;5086858;28;20024;-66
2022/03/19 04:51:49;;;;;;;27.58;5.57;;;;;;;2.88;80.98;102658.66;5085882;28;20103;-69
2022/03/19 04:54:16;;;;;;;29.48;4.85;;;;;;;2.87;80.86;102654.31;5086196;28;20036;-69
2022/03/19 04:56:41;;;;;;;24.83;3.85;;;;;;;2.87;80.68;102655.19;5087131;28;20118;-70
2022/03/19 04:59:11;;;;;;;16.95;4.13;;;;;;;2.85;81.17;102645.66;5086064;28;20350;-70
2022/03/19 05:01:37;;;;;;;28.52;4.85;;;;;;;2.84;81.08;102650.00;5082081;28;20044;-69
2022/03/19 05:04:03;;;;;;;18.58;4.28;;;;;;;2.81;81.40;102639.63;5079132;28;20792;-68
2022/03/19 05:06:28;;;;;;;29.58;5.07;;;;;;;2.74;81.70;102635.28;5086614;28;20036;-71
2022/03/19 05:11:38;;;;;;;26.38;4.63;;;;;;;2.74;81.46;102642.19;5087010;28;20540;-69
2022/03/19 05:14:04;;;;;;;16.90;4.38;;;;;;;2.67;81.82;102639.59;5086061;28;20127;-70
2022/03/19 05:16:30;;;;;;;31.52;4.70;;;;;;;2.63;82.02;102642.13;5068140;28;20500;-69
2022/03/19 05:18:55;;;;;;;25.52;4.38;;;;;;;2.64;82.10;102646.47;5085832;28;20039;-68
2022/03/19 05:21:20;;;;;;;26.63;5.15;;;;;;;2.59;82.17;102641.25;5067861;28;20101;-71
2022/03/19 05:23:46;;;;;;;17.25;3.45;;;;;;;2.58;82.09;102643.84;5067142;28;20040;-69
2022/03/19 05:26:12;;;;;;;23.38;4.25;;;;;;;2.55;82.76;102641.25;5086614;28;20450;-69
2022/03/19 05:28:37;;;;;;;26.65;4.38;;;;;;;2.56;82.74;102641.28;5085290;28;20039;-70
2022/03/19 05:31:03;;;;;;;15.55;3.85;;;;;;;2.55;82.73;102631.75;5086852;28;20027;-69
2022/03/19 05:36:13;;;;;;;28.15;4.50;;;;;;;2.54;82.74;102629.16;5086531;28;20051;-67
2022/03/19 05:38:39;;;;;;;33.78;4.72;;;;;;;2.52;82.33;102636.03;5086613;28;20040;-69
2022/03/19 05:41:04;;;;;;;13.45;3.75;;;;;;;2.56;83.41;102635.19;5086325;28;20451;-70
2022/03/19 05:43:30;;;;;;;16.05;4.57;;;;;;;2.57;83.21;102640.41;5067102;28;20031;-68
2022/03/19 05:45:55;;;;;;;26.52;4.90;;;;;;;2.65;82.51;102643.88;5086457;28;20043;-68
2022/03/19 05:48:20;;;;;;;21.05;5.38;;;;;;;2.64;83.00;102649.06;5086118;28;20055;-69
2022/03/19 05:50:48;;;;;;;35.60;6.20;;;;;;;2.64;82.44;102642.16;5085227;28;20032;-68
2022/03/19 05:53:14;;;;;;;21.00;4.50;;;;;;;2.65;82.10;102643.88;5085225;28;20116;-68
2022/03/19 05:55:39;;;;;;;24.98;4.97;;;;;;;2.69;84.65;102652.53;5086489;28;20497;-70
2022/03/19 05:58:04;;;;;;;28.58;6.00;;;;;;;2.65;82.04;102638.69;5086232;28;20483;-70
2022/03/19 06:00:30;;;;;;;29.95;6.78;;;;;;;2.67;81.94;102642.19;5086286;28;20047;-68
2022/03/19 06:02:55;;;;;;;34.85;7.55;;;;;;;2.69;82.10;102651.66;5085480;28;20040;-68
2022/03/19 06:05:20;;;;;;;27.83;5.95;;;;;;;2.69;81.71;102651.66;5085646;28;20397;-68
2022/03/19 06:07:45;;;;;;;26.90;5.88;;;;;;;2.73;83.08;102654.28;5085526;28;20032;-69
2022/03/19 06:10:11;;;;;;;25.02;4.35;;;;;;;2.72;81.54;102647.38;5067940;28;20040;-70
2022/03/19 06:12:37;;;;;;;19.73;4.10;;;;;;;2.73;81.76;102656.88;5069503;28;20143;-68
2022/03/19 06:15:03;;;;;;;26.65;4.65;;;;;;;2.76;81.73;102650.84;5089765;28;20131;-69
2022/03/19 06:17:29;;;;;;;17.00;3.72;;;;;;;2.75;81.32;102649.97;5088190;28;20036;-68
2022/03/19 06:19:54;;;;;;;17.80;4.25;;;;;;;2.79;81.43;102653.44;5085785;28;20089;-69
2022/03/19 06:22:20;;;;;;;31.17;4.88;;;;;;;2.76;81.00;102650.84;5070569;28;20069;-70
2022/03/19 06:24:46;;;;;;;21.15;4.00;;;;;;;2.79;80.98;102650.84;5089535;28;20138;-69
2022/03/19 06:27:11;;;;;;;18.63;4.03;;;;;;;2.79;81.25;102648.25;5088577;28;20078;-68
2022/03/19 06:29:36;;;;;;;20.30;4.28;;;;;;;2.78;81.06;102646.50;5089257;28;20032;-69
2022/03/19 06:32:02;;;;;;;17.83;3.58;;;;;;;2.79;80.97;102651.72;5069360;28;20132;-70
2022/03/19 06:34:30;;;;;;;15.77;4.57;;;;;;;2.80;81.01;102652.56;5088852;28;20444;-70
2022/03/19 06:39:40;;;;;;;15.75;3.55;;;;;;;2.87;81.03;102646.56;5084258;28;20081;-69
2022/03/19 06:42:06;;;;;;;20.55;3.85;;;;;;;2.90;80.71;102650.03;5088725;28;20028;-69
2022/03/19 06:44:33;;;;;;;28.13;4.18;;;;;;;2.95;80.40;102650.03;5088676;28;20043;-67
2022/03/19 06:46:58;;;;;;;23.48;4.75;;;;;;;3.01;80.25;102646.59;5089337;28;20047;-68
2022/03/19 06:49:26;;;;;;;14.27;3.78;;;;;;;3.02;80.21;102644.00;5088964;28;20135;-69
2022/03/19 06:51:51;;;;;;;18.58;3.83;;;;;;;3.06;80.30;102640.56;5071250;28;20059;-66
2022/03/19 06:54:16;;;;;;;22.17;4.20;;;;;;;3.12;79.82;102629.34;5088482;28;20068;-69
2022/03/19 06:56:42;;;;;;;18.95;3.60;;;;;;;3.16;79.98;102631.09;5088754;28;20096;-68
2022/03/19 06:59:07;;;;;;;19.58;4.18;;;;;;;3.21;79.70;102631.09;5088521;28;20482;-70
2022/03/19 07:01:36;;;;;;;22.00;3.65;;;;;;;3.23;79.35;102632.81;5084376;28;20047;-70
2022/03/19 07:04:01;;;;;;;21.42;3.83;;;;;;;3.27;80.14;102634.56;5084773;28;20023;-70
2022/03/19 07:06:27;;;;;;;20.95;4.43;;;;;;;3.34;79.42;102631.09;5088469;28;20052;-69
2022/03/19 07:08:52;;;;;;;21.35;4.97;;;;;;;3.38;79.17;102630.25;5087683;28;20119;-69
2022/03/19 07:11:17;;;;;;;16.85;4.05;;;;;;;3.45;79.06;102633.72;5088259;28;20020;-68
2022/03/19 07:13:43;;;;;;;19.55;4.07;;;;;;;3.51;79.07;102638.88;5088186;28;20342;-68
2022/03/19 07:16:08;;;;;;;18.90;3.80;;;;;;;3.56;78.75;102631.97;5089245;28;20022;-67
2022/03/19 07:18:34;;;;;;;17.75;3.83;;;;;;;3.59;78.57;102631.97;5085879;28;20035;-68
2022/03/19 07:20:59;;;;;;;17.17;4.00;;;;;;;3.68;78.78;102633.72;5080339;28;20075;-69
2022/03/19 07:23:24;;;;;;;25.85;3.55;;;;;;;3.76;78.66;102633.69;5044247;28;20111;-69
2022/03/19 07:25:50;;;;;;;22.60;4.85;;;;;;;3.77;78.12;102625.03;5063773;28;20044;-71
2022/03/19 07:28:17;;;;;;;16.85;3.50;;;;;;;3.80;78.37;102623.31;5084600;28;20113;-69
2022/03/19 07:30:43;;;;;;;21.67;4.50;;;;;;;3.85;78.26;102618.09;5063389;28;20545;-69
2022/03/19 07:33:09;;;;;;;23.52;4.40;;;;;;;3.91;78.17;102612.06;5085522;28;20108;-70
2022/03/19 07:35:34;;;;;;;17.02;4.05;;;;;;;3.99;78.09;102610.31;5084929;27;20064;-69
2022/03/19 07:38:01;;;;;;;25.48;4.22;;;;;;;4.03;77.91;102614.63;5087515;28;20058;-67
2022/03/19 07:43:12;;;;;;;20.52;3.90;;;;;;;4.17;77.71;102605.06;5088405;28;20070;-69
2022/03/19 07:45:40;;;;;;;23.17;3.95;;;;;;;4.21;77.31;102617.16;5088081;28;20050;-68
2022/03/19 07:48:05;;;;;;;26.75;4.78;;;;;;;4.30;77.39;102611.97;5087422;27;20032;-71
2022/03/19 07:50:32;;;;;;;24.98;3.70;;;;;;;4.35;77.16;102611.94;5069827;28;20039;-72
2022/03/19 07:52:57;;;;;;;21.10;3.70;;;;;;;4.38;76.56;102605.88;5069394;28;20040;-68
2022/03/19 07:55:24;;;;;;;22.77;4.22;;;;;;;4.41;76.94;102611.88;5088338;28;20015;-68
2022/03/19 07:57:50;;;;;;;19.13;4.30;;;;;;;4.53;76.65;102603.22;5083112;28;20027;-70
2022/03/19 08:00:16;;;;;;;16.35;4.20;;;;;;;4.61;76.79;102607.50;5064935;28;20067;-72
2022/03/19 08:02:42;;;;;;;19.95;4.15;;;;;;;4.74;75.75;102610.88;5083755;28;20105;-72
2022/03/19 08:05:08;;;;;;;18.08;3.78;;;;;;;4.76;75.55;102601.34;5087414;28;20120;-70
2022/03/19 08:07:34;;;;;;;22.30;3.92;;;;;;;4.84;75.88;102601.31;5068601;28;20027;-70
2022/03/19 08:10:00;;;;;;;16.98;4.20;;;;;;;4.94;75.47;102596.94;5084870;28;20046;-69
2022/03/19 08:12:26;;;;;;;23.67;4.30;;;;;;;5.04;74.87;102596.88;5087224;28;20432;-70
2022/03/19 08:14:51;;;;;;;20.90;4.13;;;;;;;5.08;74.49;102606.38;5080415;28;20095;-70
2022/03/19 08:17:17;;;;;;;15.40;4.07;;;;;;;5.21;73.74;102598.47;5084517;27;20036;-70
2022/03/19 08:19:42;;;;;;;19.38;3.47;;;;;;;5.22;73.99;102601.03;5080321;27;20036;-68
2022/03/19 08:22:09;;;;;;;16.77;3.50;;;;;;;5.36;72.95;102590.53;5085574;28;20059;-69
2022/03/19 08:24:35;;;;;;;21.00;4.07;;;;;;;5.38;72.76;102581.00;5064489;28;20089;-66
2022/03/19 08:27:01;;;;;;;28.13;4.97;;;;;;;5.43;72.45;102579.22;5080663;28;20043;-66
2022/03/19 08:29:27;;;;;;;19.13;4.13;;;;;;;5.50;71.76;102580.88;5083295;28;20040;-69
2022/03/19 08:31:52;;;;;;;23.08;3.75;;;;;;;5.53;71.29;102573.06;5087529;28;20077;-69
2022/03/19 08:34:18;;;;;;;15.32;4.05;;;;;;;5.71;70.69;102577.22;5086276;28;20446;-68
2022/03/19 08:36:43;;;;;;;22.52;3.55;;;;;;;5.80;69.12;102574.53;5088727;28;20410;-70
2022/03/19 08:41:53;;;;;;;23.83;4.60;;;;;;;5.93;67.91;102566.59;5084083;28;20036;-71
2022/03/19 08:44:18;;;;;;;21.00;3.45;;;;;;;6.10;68.88;102567.28;5084014;28;20032;-72
2022/03/19 08:46:44;;;;;;;19.35;3.58;;;;;;;6.23;68.04;102568.00;5084566;28;20055;-68
2022/03/19 08:49:09;;;;;;;21.95;3.67;;;;;;;6.24;67.31;102565.38;5083313;28;20031;-69
2022/03/19 08:51:40;;;;;;;22.27;3.55;;;;;;;6.40;66.96;102557.38;5065634;28;20505;-69
2022/03/19 08:54:08;;;;;;;25.45;3.95;;;;;;;6.48;66.43;102553.78;5060904;28;20425;-68
2022/03/19 08:56:34;;;;;;;19.02;3.53;;;;;;;6.49;65.71;102555.53;5060068;28;20133;-70
2022/03/19 08:59:00;;;;;;;16.95;4.13;;;;;;;6.80;66.01;102544.66;5083264;28;20123;-70
2022/03/19 09:01:26;;;;;;;20.52;3.75;;;;;;;6.76;64.94;102550.81;5084677;28;20469;-70
2022/03/19 09:03:52;;;;;;;14.27;3.13;;;;;;;6.70;65.51;102543.06;5082986;28;20016;-68
2022/03/19 09:06:18;;;;;;;20.13;3.45;;;;;;;6.64;65.14;102540.56;5086980;28;20727;-72
2022/03/19 09:08:44;;;;;;;15.73;3.25;;;;;;;6.63;64.63;102538.81;5083761;28;20151;-66
2022/03/19 09:11:10;;;;;;;19.23;3.88;;;;;;;6.70;65.82;102536.09;5086809;28;20036;-72
2022/03/19 09:13:39;;;;;;;19.70;4.07;;;;;;;6.77;65.45;102534.25;5086710;28;20494;-71
2022/03/19 09:16:05;;;;;;;23.10;4.80;;;;;;;6.92;65.17;102520.13;5086664;28;20016;-67
2022/03/19 09:18:31;;;;;;;16.60;3.63;;;;;;;7.00;64.65;102523.47;5086440;28;20348;-67
2022/03/19 09:20:59;;;;;;;21.10;4.05;;;;;;;6.97;62.38;102523.50;5084914;28;20512;-71
2022/03/19 09:23:25;;;;;;;9.48;2.80;;;;;;;6.93;62.31;102522.69;5086565;28;20424;-69
2022/03/19 09:25:51;;;;;;;18.02;3.33;;;;;;;7.08;61.98;102510.31;5099907;22;20104;-69
2022/03/19 09:28:17;;;;;;;17.27;3.55;;;;;;;7.18;61.64;102510.13;5090802;28;20659;-68
2022/03/19 09:30:42;;;;;;;19.85;3.63;;;;;;;7.25;62.19;102508.28;5092934;28;20044;-66
2022/03/19 09:33:07;;;;;;;15.05;2.80;;;;;;;7.23;60.86;102510.03;5090362;28;20060;-68
2022/03/19 09:35:34;;;;;;;13.35;2.65;;;;;;;7.27;61.02;102499.53;5090716;28;20132;-69
2022/03/19 09:37:59;;;;;;;15.95;2.88;;;;;;;7.44;60.73;102506.19;5070685;28;20043;-74
2022/03/19 09:40:24;;;;;;;24.38;3.85;;;;;;;7.50;59.76;102501.75;5088522;28;20397;-68
2022/03/19 09:42:53;;;;;;;17.23;2.90;;;;;;;7.61;60.07;102498.06;5090330;28;20142;-71
2022/03/19 09:45:20;;;;;;;23.17;3.78;;;;;;;7.70;59.58;102495.28;5073379;28;20478;-71
2022/03/19 09:47:46;;;;;;;15.48;3.00;;;;;;;7.79;60.29;102497.72;5095944;28;20481;-68
2022/03/19 09:50:11;;;;;;;15.23;3.28;;;;;;;7.87;59.91;102494.94;5092230;28;20386;-70
2022/03/19 09:52:40;;;;;;;16.58;3.03;;;;;;;7.86;60.01;102496.72;5092740;28;20516;-70
2022/03/19 09:55:06;;;;;;;;;;;;;;;7.94;59.45;102492.19;5094890;28;20020;-70
2022/03/19 09:57:32;;;;;;;15.75;3.33;;;;;;;8.07;60.11;102486.69;5094363;28;19990;-67
2022/03/19 09:59:57;;;;;;;10.70;2.65;;;;;;;8.14;59.57;102483.06;5096738;28;20054;-70
2022/03/19 10:02:23;;;;;;;26.48;3.33;;;;;;;8.19;58.98;102476.84;5092861;28;20043;-69
2022/03/19 10:04:57;;;;;;;15.45;3.35;;;;;;;8.02;58.99;102475.50;5092179;28;20032;-71
2022/03/19 10:10:08;;;;;;;18.65;3.22;;;;;;;8.22;58.58;102466.31;5091359;28;20201;-69
2022/03/19 10:12:33;;;;;;;22.40;3.80;;;;;;;8.31;59.06;102467.88;5092603;28;20059;-71
2022/03/19 10:14:59;;;;;;;15.43;2.78;;;;;;;8.24;59.10;102459.31;5091485;28;20063;-68
2022/03/19 10:17:36;;;;;;;15.98;3.75;;;;;;;8.27;59.06;102455.78;5087649;28;20070;-67
2022/03/19 10:20:03;;;;;;;14.07;3.15;;;;;;;8.23;59.53;102459.31;5072821;28;20043;-69
2022/03/19 10:22:29;;;;;;;24.20;3.42;;;;;;;8.38;58.92;102445.97;5090426;27;20567;-67
2022/03/19 10:25:03;;;;;;;19.83;3.05;;;;;;;8.44;58.96;102445.81;5088297;28;20032;-67
2022/03/19 10:27:37;;;;;;;15.43;3.33;;;;;;;8.66;58.61;102442.69;5089890;28;20036;-69
2022/03/19 10:30:10;;;;;;;29.30;3.78;;;;;;;8.78;57.13;102442.38;5088269;28;20189;-67
2022/03/19 10:32:39;;;;;;;14.23;3.13;;;;;;;8.72;56.49;102446.03;5089908;28;20036;-68
2022/03/19 10:35:04;;;;;;;10.77;2.95;;;;;;;8.80;56.16;102432.75;5093491;28;20054;-69
2022/03/19 10:37:38;;;;;;;20.77;3.17;;;;;;;9.05;56.67;102434.72;5094314;28;20052;-66
2022/03/19 10:40:05;;;;;;;21.77;3.95;;;;;;;9.04;57.18;102427.78;5095984;28;20024;-69
2022/03/19 10:42:41;;;;;;;19.08;3.70;;;;;;;9.20;57.36;102431.72;5094251;28;20036;-70
2022/03/19 10:45:09;;;;;;;15.52;3.58;;;;;;;9.09;56.21;102428.53;5093184;28;20035;-68
2022/03/19 10:47:45;;;;;;;17.48;3.17;;;;;;;9.02;54.43;102424.34;5075909;28;20444;-70
2022/03/19 10:50:18;;;;;;;18.42;3.05;;;;;;;8.80;54.39;102430.13;5090704;28;20028;-69
2022/03/19 10:52:45;;;;;;;14.13;3.03;;;;;;;8.98;54.87;102422.72;5091369;28;20032;-68
2022/03/19 10:55:11;;;;;;;11.77;2.45;;;;;;;9.19;52.65;102420.38;5091875;28;20134;-69
2022/03/19 10:57:36;;;;;;;18.88;3.08;;;;;;;9.35;52.68;102414.75;5090303;28;20635;-67
2022/03/19 11:00:04;;;;;;;13.52;3.30;;;;;;;9.58;55.87;102422.81;5091479;28;20402;-68
2022/03/19 11:02:30;;;;;;;17.35;3.88;;;;;;;9.93;55.03;102413.06;5086514;28;20040;-69
2022/03/19 11:04:59;;;;;;;9.15;2.85;;;;;;;10.31;53.08;102419.78;5085601;28;20081;-68
2022/03/19 11:07:25;;;;;;;;;;;;;;;10.09;52.06;102423.97;5090118;28;20063;-69
2022/03/19 11:09:51;;;;;;;14.70;3.42;;;;;;;10.04;52.02;102424.06;5073612;28;19953;-68
2022/03/19 11:12:20;;;;;;;14.82;3.47;;;;;;;9.78;53.89;102421.38;5090997;28;20440;-67
2022/03/19 11:14:49;;;;;;;19.65;4.05;;;;;;;9.99;54.06;102409.41;5086910;28;20037;-67
2022/03/19 11:17:25;;;;;;;20.23;4.25;;;;;;;9.66;52.98;102407.72;5089136;28;20443;-70
2022/03/19 11:19:55;;;;;;;16.85;3.90;;;;;;;9.75;52.59;102400.50;5078094;28;20059;-69
2022/03/19 11:22:21;;;;;;;17.02;3.40;;;;;;;9.65;53.18;102397.31;5090451;28;20054;-67
2022/03/19 11:25:06;;;;;;;20.10;4.45;;;;;;;9.50;53.96;102387.28;5071372;28;20032;-68
2022/03/19 11:27:34;;;;;;;15.65;3.63;;;;;;;9.49;53.72;102388.16;5080474;28;20037;-67
2022/03/19 11:30:00;;;;;;;16.30;3.33;;;;;;;9.71;52.63;102376.16;5071810;28;20115;-68
2022/03/19 11:32:26;;;;;;;12.02;3.25;;;;;;;9.67;52.27;102375.38;5090667;28;20115;-69
2022/03/19 11:34:56;;;;;;;19.77;3.72;;;;;;;9.22;53.40;102377.56;5090141;28;20036;-69
2022/03/19 11:37:22;;;;;;;15.75;3.58;;;;;;;9.26;54.23;102370.47;5090340;28;20065;-69
2022/03/19 11:40:02;;;;;;;15.52;3.80;;;;;;;9.39;55.05;102364.88;5091534;28;20023;-69